sensor_id;sensor_type;location;lat;lon;timestamp;P1;durP1;ratioP1;P2;durP2;ratioP2
46407;SDS011;32110;45.724;21.276;2023-07-29T00:01:18;5.32;;;4.47;;
46407;SDS011;32110;45.724;21.276;2023-07-29T00:03:44;11.60;;;5.18;;
46407;SDS011;32110;45.724;21.276;2023-07-29T00:06:09;7.28;;;4.78;;
46407;SDS011;32110;45.724;21.276;2023-07-29T00:08:35;7.70;;;5.13;;
46407;SDS011;32110;45.724;21.276;2023-07-29T00:11:00;11.93;;;5.30;;
46407;SDS011;32110;45.724;21.276;2023-07-29T00:13:25;6.80;;;4.90;;
46407;SDS011;32110;45.724;21.276;2023-07-29T00:15:53;6.40;;;4.57;;
46407;SDS011;32110;45.724;21.276;2023-07-29T00:18:20;6.97;;;5.03;;
46407;SDS011;32110;45.724;21.276;2023-07-29T00:20:45;9.82;;;5.07;;
46407;SDS011;32110;45.724;21.276;2023-07-29T00:23:10;10.18;;;4.75;;
46407;SDS011;32110;45.724;21.276;2023-07-29T00:25:36;10.00;;;4.53;;
46407;SDS011;32110;45.724;21.276;2023-07-29T00:28:01;7.75;;;4.93;;
46407;SDS011;32110;45.724;21.276;2023-07-29T00:30:27;6.93;;;4.88;;
46407;SDS011;32110;45.724;21.276;2023-07-29T00:32:52;8.25;;;4.72;;
46407;SDS011;32110;45.724;21.276;2023-07-29T00:35:17;7.55;;;4.63;;
46407;SDS011;32110;45.724;21.276;2023-07-29T00:37:43;6.47;;;4.43;;
46407;SDS011;32110;45.724;21.276;2023-07-29T00:40:15;7.30;;;4.80;;
46407;SDS011;32110;45.724;21.276;2023-07-29T00:42:45;12.00;;;5.43;;
46407;SDS011;32110;45.724;21.276;2023-07-29T00:45:11;9.65;;;5.30;;
46407;SDS011;32110;45.724;21.276;2023-07-29T00:47:37;7.38;;;4.72;;
46407;SDS011;32110;45.724;21.276;2023-07-29T00:50:03;7.07;;;4.95;;
46407;SDS011;32110;45.724;21.276;2023-07-29T00:52:29;9.32;;;4.72;;
46407;SDS011;32110;45.724;21.276;2023-07-29T00:54:55;7.28;;;5.05;;
46407;SDS011;32110;45.724;21.276;2023-07-29T00:57:20;8.10;;;5.20;;
46407;SDS011;32110;45.724;21.276;2023-07-29T00:59:46;10.05;;;5.13;;
46407;SDS011;32110;45.724;21.276;2023-07-29T01:02:12;6.68;;;5.05;;
46407;SDS011;32110;45.724;21.276;2023-07-29T01:04:37;7.32;;;4.70;;
46407;SDS011;32110;45.724;21.276;2023-07-29T01:09:46;7.28;;;4.57;;
46407;SDS011;32110;45.724;21.276;2023-07-29T01:12:19;7.15;;;4.70;;
46407;SDS011;32110;45.724;21.276;2023-07-29T01:14:59;8.93;;;4.63;;
46407;SDS011;32110;45.724;21.276;2023-07-29T01:17:48;9.93;;;4.80;;
46407;SDS011;32110;45.724;21.276;2023-07-29T01:20:15;7.95;;;4.53;;
46407;SDS011;32110;45.724;21.276;2023-07-29T01:22:42;9.68;;;4.65;;
46407;SDS011;32110;45.724;21.276;2023-07-29T01:25:07;8.43;;;5.13;;
46407;SDS011;32110;45.724;21.276;2023-07-29T01:27:33;7.50;;;5.15;;
46407;SDS011;32110;45.724;21.276;2023-07-29T01:29:58;8.52;;;4.88;;
46407;SDS011;32110;45.724;21.276;2023-07-29T01:38:07;9.95;;;5.55;;
46407;SDS011;32110;45.724;21.276;2023-07-29T01:40:38;6.88;;;4.60;;
46407;SDS011;32110;45.724;21.276;2023-07-29T01:43:05;10.95;;;4.65;;
46407;SDS011;32110;45.724;21.276;2023-07-29T01:45:33;7.05;;;4.97;;
46407;SDS011;32110;45.724;21.276;2023-07-29T01:48:02;6.47;;;4.85;;
46407;SDS011;32110;45.724;21.276;2023-07-29T01:50:31;6.63;;;5.28;;
46407;SDS011;32110;45.724;21.276;2023-07-29T01:52:57;10.90;;;5.32;;
46407;SDS011;32110;45.724;21.276;2023-07-29T01:55:23;9.23;;;5.35;;
46407;SDS011;32110;45.724;21.276;2023-07-29T01:57:48;9.45;;;5.10;;
46407;SDS011;32110;45.724;21.276;2023-07-29T02:00:14;8.88;;;5.28;;
46407;SDS011;32110;45.724;21.276;2023-07-29T02:02:40;8.40;;;6.05;;
46407;SDS011;32110;45.724;21.276;2023-07-29T02:05:06;8.18;;;5.50;;
46407;SDS011;32110;45.724;21.276;2023-07-29T02:07:31;9.15;;;5.78;;
46407;SDS011;32110;45.724;21.276;2023-07-29T02:09:57;8.63;;;5.72;;
46407;SDS011;32110;45.724;21.276;2023-07-29T02:12:22;9.65;;;6.00;;
46407;SDS011;32110;45.724;21.276;2023-07-29T02:14:47;7.70;;;5.32;;
46407;SDS011;32110;45.724;21.276;2023-07-29T02:17:13;9.18;;;5.63;;
46407;SDS011;32110;45.724;21.276;2023-07-29T02:19:38;11.73;;;5.55;;
46407;SDS011;32110;45.724;21.276;2023-07-29T02:22:04;7.10;;;5.30;;
46407;SDS011;32110;45.724;21.276;2023-07-29T02:24:29;7.03;;;5.45;;
46407;SDS011;32110;45.724;21.276;2023-07-29T02:26:54;7.55;;;5.47;;
46407;SDS011;32110;45.724;21.276;2023-07-29T02:29:20;8.48;;;5.20;;
46407;SDS011;32110;45.724;21.276;2023-07-29T02:31:46;6.20;;;5.10;;
46407;SDS011;32110;45.724;21.276;2023-07-29T02:34:12;6.00;;;4.85;;
46407;SDS011;32110;45.724;21.276;2023-07-29T02:36:38;8.18;;;5.15;;
46407;SDS011;32110;45.724;21.276;2023-07-29T02:39:03;9.85;;;5.47;;
46407;SDS011;32110;45.724;21.276;2023-07-29T02:41:28;13.43;;;5.68;;
46407;SDS011;32110;45.724;21.276;2023-07-29T02:43:54;7.50;;;5.18;;
46407;SDS011;32110;45.724;21.276;2023-07-29T02:46:19;8.52;;;5.88;;
46407;SDS011;32110;45.724;21.276;2023-07-29T02:48:45;6.10;;;5.00;;
46407;SDS011;32110;45.724;21.276;2023-07-29T02:51:10;10.13;;;5.25;;
46407;SDS011;32110;45.724;21.276;2023-07-29T02:53:36;8.00;;;5.75;;
46407;SDS011;32110;45.724;21.276;2023-07-29T02:56:02;6.43;;;5.15;;
46407;SDS011;32110;45.724;21.276;2023-07-29T02:58:28;7.30;;;5.93;;
46407;SDS011;32110;45.724;21.276;2023-07-29T03:00:59;9.85;;;5.63;;
46407;SDS011;32110;45.724;21.276;2023-07-29T03:03:25;8.63;;;5.22;;
46407;SDS011;32110;45.724;21.276;2023-07-29T03:05:56;8.32;;;5.65;;
46407;SDS011;32110;45.724;21.276;2023-07-29T03:08:23;11.30;;;5.72;;
46407;SDS011;32110;45.724;21.276;2023-07-29T03:10:49;10.45;;;5.10;;
46407;SDS011;32110;45.724;21.276;2023-07-29T03:13:14;6.28;;;5.25;;
46407;SDS011;32110;45.724;21.276;2023-07-29T03:15:39;8.68;;;5.90;;
46407;SDS011;32110;45.724;21.276;2023-07-29T03:18:05;10.63;;;5.88;;
46407;SDS011;32110;45.724;21.276;2023-07-29T03:20:30;10.82;;;5.00;;
46407;SDS011;32110;45.724;21.276;2023-07-29T03:22:55;10.65;;;5.78;;
46407;SDS011;32110;45.724;21.276;2023-07-29T03:25:21;11.02;;;5.20;;
46407;SDS011;32110;45.724;21.276;2023-07-29T03:27:46;8.95;;;5.30;;
46407;SDS011;32110;45.724;21.276;2023-07-29T03:30:14;12.18;;;5.90;;
46407;SDS011;32110;45.724;21.276;2023-07-29T03:32:42;12.20;;;5.75;;
46407;SDS011;32110;45.724;21.276;2023-07-29T03:35:09;10.68;;;5.55;;
46407;SDS011;32110;45.724;21.276;2023-07-29T03:37:34;8.23;;;4.90;;
46407;SDS011;32110;45.724;21.276;2023-07-29T03:40:00;9.95;;;6.00;;
46407;SDS011;32110;45.724;21.276;2023-07-29T03:42:25;15.77;;;5.57;;
46407;SDS011;32110;45.724;21.276;2023-07-29T03:44:50;10.10;;;5.72;;
46407;SDS011;32110;45.724;21.276;2023-07-29T03:47:16;9.70;;;5.90;;
46407;SDS011;32110;45.724;21.276;2023-07-29T03:49:41;13.77;;;5.85;;
46407;SDS011;32110;45.724;21.276;2023-07-29T03:52:06;7.85;;;5.82;;
46407;SDS011;32110;45.724;21.276;2023-07-29T03:54:32;8.80;;;5.47;;
46407;SDS011;32110;45.724;21.276;2023-07-29T03:56:57;11.32;;;6.35;;
46407;SDS011;32110;45.724;21.276;2023-07-29T03:59:23;10.32;;;6.10;;
46407;SDS011;32110;45.724;21.276;2023-07-29T04:01:48;14.43;;;5.85;;
46407;SDS011;32110;45.724;21.276;2023-07-29T04:04:13;11.63;;;5.22;;
46407;SDS011;32110;45.724;21.276;2023-07-29T04:06:39;7.90;;;5.70;;
46407;SDS011;32110;45.724;21.276;2023-07-29T04:09:04;11.65;;;6.13;;
46407;SDS011;32110;45.724;21.276;2023-07-29T04:11:29;10.52;;;5.82;;
46407;SDS011;32110;45.724;21.276;2023-07-29T04:13:55;13.07;;;6.10;;
46407;SDS011;32110;45.724;21.276;2023-07-29T04:16:20;10.05;;;5.72;;
46407;SDS011;32110;45.724;21.276;2023-07-29T04:18:45;13.27;;;6.07;;
46407;SDS011;32110;45.724;21.276;2023-07-29T04:21:11;10.82;;;5.97;;
46407;SDS011;32110;45.724;21.276;2023-07-29T04:23:36;8.63;;;5.50;;
46407;SDS011;32110;45.724;21.276;2023-07-29T04:26:02;9.50;;;5.32;;
46407;SDS011;32110;45.724;21.276;2023-07-29T04:28:27;10.35;;;5.60;;
46407;SDS011;32110;45.724;21.276;2023-07-29T04:30:52;8.63;;;5.47;;
46407;SDS011;32110;45.724;21.276;2023-07-29T04:33:18;10.75;;;5.20;;
46407;SDS011;32110;45.724;21.276;2023-07-29T04:35:43;11.98;;;5.30;;
46407;SDS011;32110;45.724;21.276;2023-07-29T04:38:09;8.63;;;5.20;;
46407;SDS011;32110;45.724;21.276;2023-07-29T04:40:34;10.88;;;5.03;;
46407;SDS011;32110;45.724;21.276;2023-07-29T04:43:00;5.75;;;4.85;;
46407;SDS011;32110;45.724;21.276;2023-07-29T04:45:29;8.63;;;5.15;;
46407;SDS011;32110;45.724;21.276;2023-07-29T04:47:55;8.83;;;5.07;;
46407;SDS011;32110;45.724;21.276;2023-07-29T04:50:20;6.80;;;4.75;;
46407;SDS011;32110;45.724;21.276;2023-07-29T04:52:46;7.00;;;5.00;;
46407;SDS011;32110;45.724;21.276;2023-07-29T04:55:11;8.57;;;4.80;;
46407;SDS011;32110;45.724;21.276;2023-07-29T04:57:36;6.53;;;4.43;;
46407;SDS011;32110;45.724;21.276;2023-07-29T05:00:02;9.85;;;4.90;;
46407;SDS011;32110;45.724;21.276;2023-07-29T05:02:28;8.38;;;5.28;;
46407;SDS011;32110;45.724;21.276;2023-07-29T05:04:53;11.85;;;5.20;;
46407;SDS011;32110;45.724;21.276;2023-07-29T05:07:19;9.13;;;4.80;;
46407;SDS011;32110;45.724;21.276;2023-07-29T05:09:44;6.45;;;4.93;;
46407;SDS011;32110;45.724;21.276;2023-07-29T05:12:09;8.48;;;4.50;;
46407;SDS011;32110;45.724;21.276;2023-07-29T05:14:35;7.10;;;4.50;;
46407;SDS011;32110;45.724;21.276;2023-07-29T05:17:00;6.15;;;4.45;;
46407;SDS011;32110;45.724;21.276;2023-07-29T05:19:26;6.95;;;4.93;;
46407;SDS011;32110;45.724;21.276;2023-07-29T05:21:51;9.93;;;4.32;;
46407;SDS011;32110;45.724;21.276;2023-07-29T05:24:17;7.25;;;4.55;;
46407;SDS011;32110;45.724;21.276;2023-07-29T05:26:42;7.68;;;4.60;;
46407;SDS011;32110;45.724;21.276;2023-07-29T05:29:07;6.35;;;4.70;;
46407;SDS011;32110;45.724;21.276;2023-07-29T05:31:33;16.13;;;4.80;;
46407;SDS011;32110;45.724;21.276;2023-07-29T05:33:58;10.10;;;7.15;;
46407;SDS011;32110;45.724;21.276;2023-07-29T05:36:24;9.13;;;5.40;;
46407;SDS011;32110;45.724;21.276;2023-07-29T05:38:49;12.02;;;6.68;;
46407;SDS011;32110;45.724;21.276;2023-07-29T05:41:16;9.73;;;4.93;;
46407;SDS011;32110;45.724;21.276;2023-07-29T05:43:41;8.75;;;4.72;;
46407;SDS011;32110;45.724;21.276;2023-07-29T05:46:08;7.97;;;5.68;;
46407;SDS011;32110;45.724;21.276;2023-07-29T05:48:34;7.38;;;4.80;;
46407;SDS011;32110;45.724;21.276;2023-07-29T05:51:00;12.60;;;4.38;;
46407;SDS011;32110;45.724;21.276;2023-07-29T05:53:25;13.27;;;4.90;;
46407;SDS011;32110;45.724;21.276;2023-07-29T05:55:50;9.27;;;4.90;;
46407;SDS011;32110;45.724;21.276;2023-07-29T05:58:16;11.77;;;5.22;;
46407;SDS011;32110;45.724;21.276;2023-07-29T06:00:41;8.18;;;5.03;;
46407;SDS011;32110;45.724;21.276;2023-07-29T06:03:07;7.78;;;4.40;;
46407;SDS011;32110;45.724;21.276;2023-07-29T06:05:32;5.57;;;4.13;;
46407;SDS011;32110;45.724;21.276;2023-07-29T06:07:58;6.20;;;4.40;;
46407;SDS011;32110;45.724;21.276;2023-07-29T06:10:23;8.52;;;4.65;;
46407;SDS011;32110;45.724;21.276;2023-07-29T06:12:49;8.65;;;4.00;;
46407;SDS011;32110;45.724;21.276;2023-07-29T06:15:14;6.28;;;3.72;;
46407;SDS011;32110;45.724;21.276;2023-07-29T06:17:40;6.90;;;4.05;;
46407;SDS011;32110;45.724;21.276;2023-07-29T06:20:06;10.82;;;4.47;;
46407;SDS011;32110;45.724;21.276;2023-07-29T06:22:31;5.82;;;4.43;;
46407;SDS011;32110;45.724;21.276;2023-07-29T06:24:57;8.38;;;3.83;;
46407;SDS011;32110;45.724;21.276;2023-07-29T06:27:23;9.02;;;4.20;;
46407;SDS011;32110;45.724;21.276;2023-07-29T06:29:50;5.70;;;3.90;;
46407;SDS011;32110;45.724;21.276;2023-07-29T06:32:15;5.22;;;3.47;;
46407;SDS011;32110;45.724;21.276;2023-07-29T06:34:40;7.65;;;4.53;;
46407;SDS011;32110;45.724;21.276;2023-07-29T06:37:06;8.25;;;3.88;;
46407;SDS011;32110;45.724;21.276;2023-07-29T06:39:32;8.25;;;3.67;;
46407;SDS011;32110;45.724;21.276;2023-07-29T06:41:57;7.07;;;3.72;;
46407;SDS011;32110;45.724;21.276;2023-07-29T06:44:22;5.47;;;3.80;;
46407;SDS011;32110;45.724;21.276;2023-07-29T06:46:48;8.75;;;3.83;;
46407;SDS011;32110;45.724;21.276;2023-07-29T06:49:13;7.13;;;3.80;;
46407;SDS011;32110;45.724;21.276;2023-07-29T06:51:39;6.95;;;4.20;;
46407;SDS011;32110;45.724;21.276;2023-07-29T06:54:04;6.88;;;3.78;;
46407;SDS011;32110;45.724;21.276;2023-07-29T06:56:29;6.20;;;4.00;;
46407;SDS011;32110;45.724;21.276;2023-07-29T06:58:55;8.77;;;3.90;;
46407;SDS011;32110;45.724;21.276;2023-07-29T07:01:20;8.70;;;4.07;;
46407;SDS011;32110;45.724;21.276;2023-07-29T07:03:46;5.38;;;4.28;;
46407;SDS011;32110;45.724;21.276;2023-07-29T07:06:11;7.60;;;3.83;;
46407;SDS011;32110;45.724;21.276;2023-07-29T07:08:36;8.95;;;4.25;;
46407;SDS011;32110;45.724;21.276;2023-07-29T07:11:02;6.15;;;3.58;;
46407;SDS011;32110;45.724;21.276;2023-07-29T07:13:27;4.20;;;3.53;;
46407;SDS011;32110;45.724;21.276;2023-07-29T07:15:56;5.53;;;3.90;;
46407;SDS011;32110;45.724;21.276;2023-07-29T07:18:21;5.63;;;3.85;;
46407;SDS011;32110;45.724;21.276;2023-07-29T07:20:50;5.60;;;3.88;;
46407;SDS011;32110;45.724;21.276;2023-07-29T07:23:16;7.80;;;3.78;;
46407;SDS011;32110;45.724;21.276;2023-07-29T07:25:42;4.28;;;3.60;;
46407;SDS011;32110;45.724;21.276;2023-07-29T07:28:07;6.00;;;3.80;;
46407;SDS011;32110;45.724;21.276;2023-07-29T07:30:34;6.07;;;3.47;;
46407;SDS011;32110;45.724;21.276;2023-07-29T07:32:59;10.85;;;4.05;;
46407;SDS011;32110;45.724;21.276;2023-07-29T07:35:24;6.20;;;3.85;;
46407;SDS011;32110;45.724;21.276;2023-07-29T07:37:50;6.43;;;3.90;;
46407;SDS011;32110;45.724;21.276;2023-07-29T07:40:15;7.65;;;3.78;;
46407;SDS011;32110;45.724;21.276;2023-07-29T07:42:41;7.50;;;3.83;;
46407;SDS011;32110;45.724;21.276;2023-07-29T07:45:06;10.88;;;4.15;;
46407;SDS011;32110;45.724;21.276;2023-07-29T07:47:31;7.65;;;4.03;;
46407;SDS011;32110;45.724;21.276;2023-07-29T07:49:57;5.93;;;3.80;;
46407;SDS011;32110;45.724;21.276;2023-07-29T07:52:22;7.32;;;3.67;;
46407;SDS011;32110;45.724;21.276;2023-07-29T07:54:51;9.43;;;3.58;;
46407;SDS011;32110;45.724;21.276;2023-07-29T07:57:20;9.75;;;3.85;;
46407;SDS011;32110;45.724;21.276;2023-07-29T07:59:46;6.13;;;3.90;;
46407;SDS011;32110;45.724;21.276;2023-07-29T08:02:12;9.98;;;3.80;;
46407;SDS011;32110;45.724;21.276;2023-07-29T08:04:37;6.50;;;4.20;;
46407;SDS011;32110;45.724;21.276;2023-07-29T08:07:02;5.97;;;3.97;;
46407;SDS011;32110;45.724;21.276;2023-07-29T08:09:28;7.32;;;3.90;;
46407;SDS011;32110;45.724;21.276;2023-07-29T08:11:53;9.00;;;3.83;;
46407;SDS011;32110;45.724;21.276;2023-07-29T08:14:19;14.68;;;4.50;;
46407;SDS011;32110;45.724;21.276;2023-07-29T08:16:44;7.45;;;4.50;;
46407;SDS011;32110;45.724;21.276;2023-07-29T08:19:09;7.88;;;4.70;;
46407;SDS011;32110;45.724;21.276;2023-07-29T08:21:35;10.02;;;5.50;;
46407;SDS011;32110;45.724;21.276;2023-07-29T08:24:01;5.80;;;4.53;;
46407;SDS011;32110;45.724;21.276;2023-07-29T08:26:26;9.52;;;4.53;;
46407;SDS011;32110;45.724;21.276;2023-07-29T08:28:52;7.20;;;4.88;;
46407;SDS011;32110;45.724;21.276;2023-07-29T08:31:17;10.43;;;4.70;;
46407;SDS011;32110;45.724;21.276;2023-07-29T08:33:42;10.45;;;4.30;;
46407;SDS011;32110;45.724;21.276;2023-07-29T08:36:08;7.03;;;4.18;;
46407;SDS011;32110;45.724;21.276;2023-07-29T08:38:33;6.90;;;3.58;;
46407;SDS011;32110;45.724;21.276;2023-07-29T08:41:09;9.60;;;3.67;;
46407;SDS011;32110;45.724;21.276;2023-07-29T08:43:39;10.38;;;3.78;;
46407;SDS011;32110;45.724;21.276;2023-07-29T08:46:33;6.70;;;3.35;;
46407;SDS011;32110;45.724;21.276;2023-07-29T08:48:59;11.07;;;3.78;;
46407;SDS011;32110;45.724;21.276;2023-07-29T08:51:26;9.30;;;3.78;;
46407;SDS011;32110;45.724;21.276;2023-07-29T08:53:52;5.75;;;3.05;;
46407;SDS011;32110;45.724;21.276;2023-07-29T08:56:18;7.35;;;3.58;;
46407;SDS011;32110;45.724;21.276;2023-07-29T08:58:44;7.28;;;3.35;;
46407;SDS011;32110;45.724;21.276;2023-07-29T09:01:10;9.93;;;3.40;;
46407;SDS011;32110;45.724;21.276;2023-07-29T09:03:36;7.35;;;3.20;;
46407;SDS011;32110;45.724;21.276;2023-07-29T09:06:02;6.25;;;3.47;;
46407;SDS011;32110;45.724;21.276;2023-07-29T09:08:28;5.13;;;3.17;;
46407;SDS011;32110;45.724;21.276;2023-07-29T09:10:54;8.48;;;3.55;;
46407;SDS011;32110;45.724;21.276;2023-07-29T09:13:21;7.95;;;3.20;;
46407;SDS011;32110;45.724;21.276;2023-07-29T09:15:46;7.78;;;3.33;;
46407;SDS011;32110;45.724;21.276;2023-07-29T09:18:16;6.78;;;2.80;;
46407;SDS011;32110;45.724;21.276;2023-07-29T09:20:45;4.47;;;2.58;;
46407;SDS011;32110;45.724;21.276;2023-07-29T09:23:12;3.75;;;2.78;;
46407;SDS011;32110;45.724;21.276;2023-07-29T09:25:38;9.70;;;2.55;;
46407;SDS011;32110;45.724;21.276;2023-07-29T09:28:11;5.35;;;2.50;;
46407;SDS011;32110;45.724;21.276;2023-07-29T09:30:38;6.68;;;2.78;;
46407;SDS011;32110;45.724;21.276;2023-07-29T09:33:05;3.30;;;2.60;;
46407;SDS011;32110;45.724;21.276;2023-07-29T09:35:32;12.13;;;2.83;;
46407;SDS011;32110;45.724;21.276;2023-07-29T09:37:59;4.78;;;2.47;;
46407;SDS011;32110;45.724;21.276;2023-07-29T09:40:25;6.63;;;2.63;;
46407;SDS011;32110;45.724;21.276;2023-07-29T09:42:54;8.48;;;2.70;;
46407;SDS011;32110;45.724;21.276;2023-07-29T09:45:20;4.32;;;2.50;;
46407;SDS011;32110;45.724;21.276;2023-07-29T09:47:54;5.78;;;2.42;;
46407;SDS011;32110;45.724;21.276;2023-07-29T09:50:25;8.23;;;2.55;;
46407;SDS011;32110;45.724;21.276;2023-07-29T09:55:17;7.03;;;2.60;;
46407;SDS011;32110;45.724;21.276;2023-07-29T09:57:44;5.63;;;2.40;;
46407;SDS011;32110;45.724;21.276;2023-07-29T10:00:10;4.28;;;2.65;;
46407;SDS011;32110;45.724;21.276;2023-07-29T10:02:37;8.95;;;2.95;;
46407;SDS011;32110;45.724;21.276;2023-07-29T10:05:04;6.20;;;2.58;;
46407;SDS011;32110;45.724;21.276;2023-07-29T10:07:31;3.65;;;2.53;;
46407;SDS011;32110;45.724;21.276;2023-07-29T10:09:57;12.57;;;2.95;;
46407;SDS011;32110;45.724;21.276;2023-07-29T10:12:24;10.55;;;2.75;;
46407;SDS011;32110;45.724;21.276;2023-07-29T10:14:50;9.15;;;3.17;;
46407;SDS011;32110;45.724;21.276;2023-07-29T10:17:15;5.70;;;2.60;;
46407;SDS011;32110;45.724;21.276;2023-07-29T10:19:41;5.65;;;2.40;;
46407;SDS011;32110;45.724;21.276;2023-07-29T10:22:08;6.13;;;3.20;;
46407;SDS011;32110;45.724;21.276;2023-07-29T10:24:35;4.07;;;2.50;;
46407;SDS011;32110;45.724;21.276;2023-07-29T10:27:06;9.18;;;3.13;;
46407;SDS011;32110;45.724;21.276;2023-07-29T10:29:33;8.00;;;2.72;;
46407;SDS011;32110;45.724;21.276;2023-07-29T10:32:03;5.38;;;2.50;;
46407;SDS011;32110;45.724;21.276;2023-07-29T10:34:30;3.88;;;2.35;;
46407;SDS011;32110;45.724;21.276;2023-07-29T10:36:57;5.40;;;2.25;;
46407;SDS011;32110;45.724;21.276;2023-07-29T10:39:24;6.30;;;2.47;;
46407;SDS011;32110;45.724;21.276;2023-07-29T10:41:58;7.50;;;2.30;;
46407;SDS011;32110;45.724;21.276;2023-07-29T10:47:13;4.72;;;2.30;;
46407;SDS011;32110;45.724;21.276;2023-07-29T10:49:59;4.45;;;2.60;;
46407;SDS011;32110;45.724;21.276;2023-07-29T10:55:00;4.35;;;2.33;;
46407;SDS011;32110;45.724;21.276;2023-07-29T10:57:33;3.53;;;2.60;;
46407;SDS011;32110;45.724;21.276;2023-07-29T11:00:00;5.32;;;2.22;;
46407;SDS011;32110;45.724;21.276;2023-07-29T11:02:30;2.97;;;2.40;;
46407;SDS011;32110;45.724;21.276;2023-07-29T11:04:56;5.40;;;2.22;;
46407;SDS011;32110;45.724;21.276;2023-07-29T11:07:23;3.75;;;2.08;;
46407;SDS011;32110;45.724;21.276;2023-07-29T11:09:59;4.68;;;2.50;;
46407;SDS011;32110;45.724;21.276;2023-07-29T11:15:23;4.82;;;2.30;;
46407;SDS011;32110;45.724;21.276;2023-07-29T11:18:00;3.72;;;2.35;;
46407;SDS011;32110;45.724;21.276;2023-07-29T11:20:30;4.95;;;2.60;;
46407;SDS011;32110;45.724;21.276;2023-07-29T11:22:58;3.05;;;2.10;;
46407;SDS011;32110;45.724;21.276;2023-07-29T11:25:27;4.65;;;2.33;;
46407;SDS011;32110;45.724;21.276;2023-07-29T11:27:56;4.13;;;2.20;;
46407;SDS011;32110;45.724;21.276;2023-07-29T11:30:24;7.57;;;2.83;;
46407;SDS011;32110;45.724;21.276;2023-07-29T11:32:52;3.45;;;1.90;;
46407;SDS011;32110;45.724;21.276;2023-07-29T11:35:18;5.72;;;2.38;;
46407;SDS011;32110;45.724;21.276;2023-07-29T11:37:44;6.70;;;2.22;;
46407;SDS011;32110;45.724;21.276;2023-07-29T11:40:18;5.88;;;2.15;;
46407;SDS011;32110;45.724;21.276;2023-07-29T11:42:45;3.08;;;2.40;;
46407;SDS011;32110;45.724;21.276;2023-07-29T11:45:12;2.80;;;2.08;;
46407;SDS011;32110;45.724;21.276;2023-07-29T11:47:38;6.03;;;2.20;;
46407;SDS011;32110;45.724;21.276;2023-07-29T11:50:04;6.32;;;2.17;;
46407;SDS011;32110;45.724;21.276;2023-07-29T11:52:34;3.92;;;2.53;;
46407;SDS011;32110;45.724;21.276;2023-07-29T11:55:01;5.45;;;2.65;;
46407;SDS011;32110;45.724;21.276;2023-07-29T11:57:28;4.72;;;2.42;;
46407;SDS011;32110;45.724;21.276;2023-07-29T11:59:55;4.20;;;2.42;;
46407;SDS011;32110;45.724;21.276;2023-07-29T12:02:20;8.65;;;2.47;;
46407;SDS011;32110;45.724;21.276;2023-07-29T12:04:47;4.30;;;2.45;;
46407;SDS011;32110;45.724;21.276;2023-07-29T12:07:13;5.90;;;3.20;;
46407;SDS011;32110;45.724;21.276;2023-07-29T12:09:40;5.60;;;2.90;;
46407;SDS011;32110;45.724;21.276;2023-07-29T12:12:07;3.55;;;3.15;;
46407;SDS011;32110;45.724;21.276;2023-07-29T12:14:33;4.60;;;2.85;;
46407;SDS011;32110;45.724;21.276;2023-07-29T12:17:00;5.07;;;3.15;;
46407;SDS011;32110;45.724;21.276;2023-07-29T12:19:31;8.30;;;3.35;;
46407;SDS011;32110;45.724;21.276;2023-07-29T12:22:04;7.18;;;2.97;;
46407;SDS011;32110;45.724;21.276;2023-07-29T12:24:32;6.15;;;3.20;;
46407;SDS011;32110;45.724;21.276;2023-07-29T12:26:59;6.23;;;3.00;;
46407;SDS011;32110;45.724;21.276;2023-07-29T12:29:25;4.03;;;2.88;;
46407;SDS011;32110;45.724;21.276;2023-07-29T12:31:58;7.18;;;3.13;;
46407;SDS011;32110;45.724;21.276;2023-07-29T12:34:25;4.13;;;3.30;;
46407;SDS011;32110;45.724;21.276;2023-07-29T12:36:53;4.20;;;3.03;;
46407;SDS011;32110;45.724;21.276;2023-07-29T12:39:20;4.88;;;3.40;;
46407;SDS011;32110;45.724;21.276;2023-07-29T12:41:48;6.30;;;3.40;;
46407;SDS011;32110;45.724;21.276;2023-07-29T12:44:14;4.90;;;3.45;;
46407;SDS011;32110;45.724;21.276;2023-07-29T12:46:40;7.18;;;3.30;;
46407;SDS011;32110;45.724;21.276;2023-07-29T12:49:05;5.53;;;3.20;;
46407;SDS011;32110;45.724;21.276;2023-07-29T12:51:31;6.03;;;3.55;;
46407;SDS011;32110;45.724;21.276;2023-07-29T12:53:56;5.97;;;3.50;;
46407;SDS011;32110;45.724;21.276;2023-07-29T12:56:22;5.15;;;3.70;;
46407;SDS011;32110;45.724;21.276;2023-07-29T12:58:47;7.57;;;3.38;;
46407;SDS011;32110;45.724;21.276;2023-07-29T13:01:13;5.78;;;3.60;;
46407;SDS011;32110;45.724;21.276;2023-07-29T13:03:42;5.38;;;3.47;;
46407;SDS011;32110;45.724;21.276;2023-07-29T13:06:08;8.27;;;4.13;;
46407;SDS011;32110;45.724;21.276;2023-07-29T13:08:34;7.15;;;4.30;;
46407;SDS011;32110;45.724;21.276;2023-07-29T13:10:59;6.93;;;3.72;;
46407;SDS011;32110;45.724;21.276;2023-07-29T13:13:24;7.18;;;4.30;;
46407;SDS011;32110;45.724;21.276;2023-07-29T13:15:50;6.37;;;4.53;;
46407;SDS011;32110;45.724;21.276;2023-07-29T13:18:15;4.82;;;3.85;;
46407;SDS011;32110;45.724;21.276;2023-07-29T13:20:40;7.22;;;4.20;;
46407;SDS011;32110;45.724;21.276;2023-07-29T13:23:06;4.93;;;3.60;;
46407;SDS011;32110;45.724;21.276;2023-07-29T13:25:31;6.45;;;4.10;;
46407;SDS011;32110;45.724;21.276;2023-07-29T13:27:56;6.68;;;4.07;;
46407;SDS011;32110;45.724;21.276;2023-07-29T13:30:22;7.13;;;3.95;;
46407;SDS011;32110;45.724;21.276;2023-07-29T13:32:47;9.13;;;4.30;;
46407;SDS011;32110;45.724;21.276;2023-07-29T13:35:12;7.00;;;4.00;;
46407;SDS011;32110;45.724;21.276;2023-07-29T13:37:38;6.97;;;3.88;;
46407;SDS011;32110;45.724;21.276;2023-07-29T13:40:03;8.20;;;3.92;;
46407;SDS011;32110;45.724;21.276;2023-07-29T13:42:29;8.82;;;4.05;;
46407;SDS011;32110;45.724;21.276;2023-07-29T13:44:54;5.22;;;3.53;;
46407;SDS011;32110;45.724;21.276;2023-07-29T13:47:20;4.53;;;3.53;;
46407;SDS011;32110;45.724;21.276;2023-07-29T13:49:45;4.88;;;3.20;;
46407;SDS011;32110;45.724;21.276;2023-07-29T13:52:10;4.40;;;3.72;;
46407;SDS011;32110;45.724;21.276;2023-07-29T13:54:36;5.45;;;3.90;;
46407;SDS011;32110;45.724;21.276;2023-07-29T13:57:01;6.50;;;3.78;;
46407;SDS011;32110;45.724;21.276;2023-07-29T13:59:27;7.53;;;3.95;;
46407;SDS011;32110;45.724;21.276;2023-07-29T14:01:52;6.95;;;4.00;;
46407;SDS011;32110;45.724;21.276;2023-07-29T14:04:17;5.53;;;3.95;;
46407;SDS011;32110;45.724;21.276;2023-07-29T14:06:43;5.10;;;4.00;;
46407;SDS011;32110;45.724;21.276;2023-07-29T14:09:08;4.78;;;3.80;;
46407;SDS011;32110;45.724;21.276;2023-07-29T14:11:33;6.05;;;4.00;;
46407;SDS011;32110;45.724;21.276;2023-07-29T14:13:59;7.03;;;4.03;;
46407;SDS011;32110;45.724;21.276;2023-07-29T14:16:24;4.63;;;3.63;;
46407;SDS011;32110;45.724;21.276;2023-07-29T14:18:49;8.98;;;4.10;;
46407;SDS011;32110;45.724;21.276;2023-07-29T14:21:15;5.22;;;4.13;;
46407;SDS011;32110;45.724;21.276;2023-07-29T14:23:40;5.75;;;4.00;;
46407;SDS011;32110;45.724;21.276;2023-07-29T14:26:05;8.35;;;4.10;;
46407;SDS011;32110;45.724;21.276;2023-07-29T14:28:31;7.03;;;4.20;;
46407;SDS011;32110;45.724;21.276;2023-07-29T14:30:56;6.05;;;4.18;;
46407;SDS011;32110;45.724;21.276;2023-07-29T14:33:22;6.10;;;3.90;;
46407;SDS011;32110;45.724;21.276;2023-07-29T14:35:47;6.25;;;4.13;;
46407;SDS011;32110;45.724;21.276;2023-07-29T14:38:12;6.60;;;3.95;;
46407;SDS011;32110;45.724;21.276;2023-07-29T14:40:38;5.05;;;4.03;;
46407;SDS011;32110;45.724;21.276;2023-07-29T14:43:03;6.30;;;3.60;;
46407;SDS011;32110;45.724;21.276;2023-07-29T14:45:28;9.87;;;3.60;;
46407;SDS011;32110;45.724;21.276;2023-07-29T14:47:54;6.63;;;4.20;;